createdAt,value
2023-02-24T00:02:14.808Z,5.20
2023-02-24T00:04:41.430Z,5.20
2023-02-24T00:07:07.972Z,5.10
2023-02-24T00:09:34.520Z,5.00
2023-02-24T00:12:01.107Z,5.00
2023-02-24T00:14:28.045Z,4.90
2023-02-24T00:16:54.738Z,4.90
2023-02-24T00:19:21.332Z,4.80
2023-02-24T00:21:47.964Z,4.60
2023-02-24T00:24:14.480Z,4.70
2023-02-24T00:26:40.986Z,4.70
2023-02-24T00:29:07.497Z,4.70
2023-02-24T00:31:34.112Z,4.70
2023-02-24T00:34:00.731Z,4.70
2023-02-24T00:36:27.767Z,4.70
2023-02-24T00:38:57.458Z,4.70
2023-02-24T00:41:25.116Z,4.70
2023-02-24T00:43:51.652Z,4.70
2023-02-24T00:46:18.231Z,4.60
2023-02-24T00:48:47.855Z,4.60
2023-02-24T00:51:14.497Z,4.60
2023-02-24T00:53:41.026Z,4.60
2023-02-24T00:56:07.610Z,4.60
2023-02-24T00:58:34.883Z,4.50
2023-02-24T01:01:02.191Z,4.60
2023-02-24T01:03:29.158Z,4.50
2023-02-24T01:05:55.673Z,4.50
2023-02-24T01:08:22.996Z,4.40
2023-02-24T01:11:09.516Z,4.40
2023-02-24T01:13:36.030Z,4.30
2023-02-24T01:16:02.544Z,4.30
2023-02-24T01:18:30.998Z,4.30
2023-02-24T01:20:58.454Z,4.30
2023-02-24T01:23:25.889Z,4.20
2023-02-24T01:25:53.324Z,4.20
2023-02-24T01:28:19.820Z,4.20
2023-02-24T01:30:46.418Z,4.20
2023-02-24T01:33:14.678Z,4.10
2023-02-24T01:35:41.314Z,4.10
2023-02-24T01:38:07.790Z,4.10
2023-02-24T01:40:34.280Z,4.10
2023-02-24T01:43:00.752Z,4.00
2023-02-24T01:45:29.184Z,4.10
2023-02-24T01:47:55.787Z,4.10
2023-02-24T01:50:22.350Z,4.10
2023-02-24T01:52:48.904Z,4.10
2023-02-24T01:55:15.995Z,4.10
2023-02-24T01:57:42.503Z,4.10
2023-02-24T02:00:12.271Z,4.10
2023-02-24T02:02:38.900Z,4.10
2023-02-24T02:05:05.759Z,4.20
2023-02-24T02:07:32.289Z,4.20
2023-02-24T02:10:00.280Z,4.10
2023-02-24T02:12:26.766Z,4.20
2023-02-24T02:14:53.500Z,4.10
2023-02-24T02:17:19.990Z,4.10
2023-02-24T02:19:46.485Z,4.10
2023-02-24T02:22:13.750Z,4.20
2023-02-24T02:24:48.277Z,4.20
2023-02-24T02:27:19.734Z,4.20
2023-02-24T02:29:46.207Z,4.20
2023-02-24T02:32:12.866Z,4.20
2023-02-24T02:34:39.447Z,4.20
2023-02-24T02:37:05.974Z,4.20
2023-02-24T02:39:32.490Z,4.10
2023-02-24T02:42:01.957Z,4.20
2023-02-24T02:44:28.508Z,4.10
2023-02-24T02:46:56.406Z,4.10
2023-02-24T02:49:22.963Z,4.10
2023-02-24T02:51:51.585Z,4.00
2023-02-24T02:54:18.196Z,3.90
2023-02-24T02:56:44.832Z,3.80
2023-02-24T02:59:12.631Z,3.70
2023-02-24T03:01:39.155Z,3.60
2023-02-24T03:04:05.675Z,3.50
2023-02-24T03:06:32.174Z,3.50
2023-02-24T03:08:58.731Z,3.50
2023-02-24T03:11:25.240Z,3.50
2023-02-24T03:13:51.764Z,3.50
2023-02-24T03:16:18.351Z,3.50
2023-02-24T03:18:44.891Z,3.60
2023-02-24T03:21:11.935Z,3.60
2023-02-24T03:23:38.656Z,3.70
2023-02-24T03:26:07.470Z,3.70
2023-02-24T03:28:35.647Z,3.70
2023-02-24T03:31:03.544Z,3.70
2023-02-24T03:33:30.283Z,3.70
2023-02-24T03:36:01.528Z,3.70
2023-02-24T03:38:28.409Z,3.70
2023-02-24T03:40:54.915Z,3.80
2023-02-24T03:43:22.058Z,3.70
2023-02-24T03:45:48.870Z,3.80
2023-02-24T03:48:16.142Z,3.80
2023-02-24T03:50:42.660Z,3.70
2023-02-24T03:53:09.159Z,3.80
2023-02-24T03:55:37.596Z,3.80
2023-02-24T03:58:04.327Z,3.80
2023-02-24T04:00:34.965Z,3.80
2023-02-24T04:03:03.347Z,3.80
2023-02-24T04:05:29.911Z,3.70
2023-02-24T04:07:56.429Z,3.70
2023-02-24T04:10:22.979Z,3.70
2023-02-24T04:12:49.471Z,3.70
2023-02-24T04:15:16.014Z,3.70
2023-02-24T04:17:42.560Z,3.60
2023-02-24T04:20:20.235Z,3.60
2023-02-24T04:22:49.244Z,3.50
2023-02-24T04:25:15.763Z,3.60
2023-02-24T04:27:42.309Z,3.60
2023-02-24T04:30:10.607Z,3.60
2023-02-24T04:32:37.138Z,3.70
2023-02-24T04:35:03.780Z,3.60
2023-02-24T04:37:33.725Z,3.60
2023-02-24T04:40:00.235Z,3.60
2023-02-24T04:42:26.814Z,3.50
2023-02-24T04:44:53.732Z,3.50
2023-02-24T04:47:20.778Z,3.40
2023-02-24T04:49:47.286Z,3.40
2023-02-24T04:52:15.232Z,3.40
2023-02-24T04:54:41.835Z,3.40
2023-02-24T04:57:10.466Z,3.50
2023-02-24T04:59:37.963Z,3.40
2023-02-24T05:02:04.605Z,3.50
2023-02-24T05:04:31.643Z,3.50
2023-02-24T05:06:58.170Z,3.50
2023-02-24T05:09:24.690Z,3.50
2023-02-24T05:11:51.207Z,3.40
2023-02-24T05:14:18.058Z,3.40
2023-02-24T05:16:44.557Z,3.40
2023-02-24T05:19:29.924Z,3.30
2023-02-24T05:21:59.214Z,3.20
2023-02-24T05:24:26.992Z,3.20
2023-02-24T05:26:58.074Z,3.20
2023-02-24T05:29:26.061Z,3.20
2023-02-24T05:31:56.554Z,3.10
2023-02-24T05:34:24.171Z,3.10
2023-02-24T05:36:50.666Z,3.10
2023-02-24T05:39:19.392Z,3.10
2023-02-24T05:41:48.337Z,3.00
2023-02-24T05:44:15.653Z,2.90
2023-02-24T05:46:42.251Z,2.80
2023-02-24T05:49:09.090Z,2.70
2023-02-24T05:51:35.686Z,2.60
2023-02-24T05:54:04.423Z,2.50
2023-02-24T05:56:31.197Z,2.40
2023-02-24T05:59:02.024Z,2.40
2023-02-24T06:01:30.203Z,2.40
2023-02-24T06:03:57.457Z,2.40
2023-02-24T06:06:24.631Z,2.40
2023-02-24T06:08:51.837Z,2.30
2023-02-24T06:11:19.001Z,2.30
2023-02-24T06:13:48.588Z,2.30
2023-02-24T06:16:15.159Z,2.20
2023-02-24T06:18:41.717Z,2.30
2023-02-24T06:21:08.397Z,2.30
2023-02-24T06:23:34.922Z,2.20
2023-02-24T06:26:01.420Z,2.20
2023-02-24T06:28:28.243Z,2.20
2023-02-24T06:30:56.117Z,2.20
2023-02-24T06:33:22.937Z,2.20
2023-02-24T06:35:49.432Z,2.20
2023-02-24T06:38:15.966Z,2.20
2023-02-24T06:40:42.601Z,2.20
2023-02-24T06:43:09.162Z,2.20
2023-02-24T06:45:35.852Z,2.20
2023-02-24T06:48:03.332Z,2.20
2023-02-24T06:50:30.882Z,2.20
2023-02-24T06:53:00.770Z,2.20
2023-02-24T06:55:27.487Z,2.20
2023-02-24T06:57:57.015Z,2.20
2023-02-24T07:00:27.862Z,2.10
2023-02-24T07:02:54.437Z,2.10
2023-02-24T07:05:24.037Z,2.20
2023-02-24T07:07:51.153Z,2.20
2023-02-24T07:10:17.856Z,2.10
2023-02-24T07:12:44.801Z,2.10
2023-02-24T07:15:13.740Z,2.20
2023-02-24T07:17:40.247Z,2.20
2023-02-24T07:20:11.956Z,2.20
2023-02-24T07:22:38.507Z,2.20
2023-02-24T07:25:07.034Z,2.20
2023-02-24T07:27:33.562Z,2.30
2023-02-24T07:30:00.156Z,2.30
2023-02-24T07:32:27.731Z,2.30
2023-02-24T07:34:54.285Z,2.40
2023-02-24T07:37:20.973Z,2.40
2023-02-24T07:39:47.543Z,2.50
2023-02-24T07:42:14.049Z,2.50
2023-02-24T07:44:40.607Z,2.50
2023-02-24T07:47:10.679Z,2.50
2023-02-24T07:49:37.229Z,2.50
2023-02-24T07:52:03.841Z,2.40
2023-02-24T07:54:30.579Z,2.50
2023-02-24T07:56:57.636Z,2.50
2023-02-24T07:59:24.167Z,2.50
2023-02-24T08:01:50.786Z,2.50
2023-02-24T08:04:17.284Z,2.50
2023-02-24T08:06:50.182Z,2.50
2023-02-24T08:09:17.163Z,2.40
2023-02-24T08:11:45.854Z,2.40
2023-02-24T08:14:13.713Z,2.30
2023-02-24T08:16:40.253Z,2.30
2023-02-24T08:19:07.411Z,2.40
2023-02-24T08:21:38.194Z,2.40
2023-02-24T08:24:04.691Z,2.40
2023-02-24T08:26:31.618Z,2.40
2023-02-24T08:28:58.207Z,2.40
2023-02-24T08:31:25.056Z,2.40
2023-02-24T08:33:56.238Z,2.40
2023-02-24T08:36:25.931Z,2.40
2023-02-24T08:38:52.488Z,2.40
2023-02-24T08:41:20.889Z,2.40
2023-02-24T08:43:47.817Z,2.40
2023-02-24T08:46:18.188Z,2.40
2023-02-24T08:48:46.313Z,2.40
2023-02-24T08:51:14.878Z,2.40
2023-02-24T08:53:41.473Z,2.40
2023-02-24T08:56:11.422Z,2.40
2023-02-24T08:58:40.871Z,2.50
2023-02-24T09:01:18.328Z,2.40
2023-02-24T09:03:46.097Z,2.50
2023-02-24T09:06:12.592Z,2.40
2023-02-24T09:08:39.077Z,2.40
2023-02-24T09:11:07.748Z,2.40
2023-02-24T09:13:34.341Z,2.40
2023-02-24T09:16:01.192Z,2.40
2023-02-24T09:18:30.253Z,2.40
2023-02-24T09:20:56.800Z,2.50
2023-02-24T09:23:29.911Z,2.50
2023-02-24T09:25:56.681Z,2.40
2023-02-24T09:28:24.706Z,2.40
2023-02-24T09:30:53.288Z,2.40
2023-02-24T09:33:21.188Z,2.30
2023-02-24T09:35:47.768Z,2.30
2023-02-24T09:38:16.635Z,2.30
2023-02-24T09:40:48.781Z,2.30
2023-02-24T09:43:17.504Z,2.30
2023-02-24T09:45:45.921Z,2.30
2023-02-24T09:48:12.481Z,2.40
2023-02-24T09:51:03.867Z,2.40
2023-02-24T09:53:41.312Z,2.40
2023-02-24T09:56:08.185Z,2.40
2023-02-24T09:58:43.674Z,2.40
2023-02-24T10:01:23.405Z,2.50
2023-02-24T10:03:51.645Z,2.50
2023-02-24T10:06:20.463Z,2.50
2023-02-24T10:08:46.985Z,2.50
2023-02-24T10:11:13.452Z,2.50
2023-02-24T10:13:39.993Z,2.50
2023-02-24T10:16:06.979Z,2.50
2023-02-24T10:18:33.916Z,2.50
2023-02-24T10:21:00.508Z,2.50
2023-02-24T10:23:32.779Z,2.50
2023-02-24T10:26:06.754Z,2.50
2023-02-24T10:28:36.518Z,2.40
2023-02-24T10:31:10.038Z,2.40
2023-02-24T10:33:38.859Z,2.40
2023-02-24T10:36:08.939Z,2.40
2023-02-24T10:38:38.128Z,2.40
2023-02-24T10:41:06.149Z,2.40
2023-02-24T10:43:33.599Z,2.40
2023-02-24T10:46:06.104Z,2.40
2023-02-24T10:48:41.846Z,2.50
2023-02-24T10:51:09.896Z,2.50
2023-02-24T10:53:37.629Z,2.50
2023-02-24T10:56:24.411Z,2.50
2023-02-24T10:58:54.011Z,2.50
2023-02-24T11:01:21.177Z,2.50
2023-02-24T11:04:00.907Z,2.50
2023-02-24T11:06:46.096Z,2.50
2023-02-24T11:09:27.860Z,2.40
2023-02-24T11:12:13.447Z,2.40
2023-02-24T11:14:58.919Z,2.40
2023-02-24T11:17:26.877Z,2.40
2023-02-24T11:19:53.524Z,2.40
2023-02-24T11:22:20.019Z,2.40
2023-02-24T11:24:46.522Z,2.40
2023-02-24T11:27:14.865Z,2.30
2023-02-24T11:29:41.312Z,2.30
2023-02-24T11:32:10.043Z,2.30
2023-02-24T11:34:37.752Z,2.30
2023-02-24T11:40:23.700Z,2.20
2023-02-24T11:42:50.281Z,2.20
2023-02-24T11:45:16.774Z,2.10
2023-02-24T11:47:43.232Z,2.10
2023-02-24T11:50:09.751Z,2.10
2023-02-24T11:52:36.250Z,2.10
2023-02-24T11:55:03.624Z,2.10
2023-02-24T11:57:30.319Z,2.10
2023-02-24T11:59:56.817Z,2.10
2023-02-24T12:02:23.407Z,2.10
2023-02-24T12:04:49.983Z,2.10
2023-02-24T12:07:16.741Z,2.00
2023-02-24T12:09:43.233Z,2.00
2023-02-24T12:12:10.426Z,2.10
2023-02-24T12:14:37.964Z,2.10
2023-02-24T12:17:07.626Z,2.10
2023-02-24T12:19:34.102Z,2.10
2023-02-24T12:22:02.961Z,2.20
2023-02-24T12:24:29.443Z,2.10
2023-02-24T12:26:55.990Z,2.20
2023-02-24T12:29:22.549Z,2.20
2023-02-24T12:31:53.246Z,2.20
2023-02-24T12:34:19.979Z,2.30
2023-02-24T12:36:46.449Z,2.30
2023-02-24T12:39:12.973Z,2.30
2023-02-24T12:41:39.472Z,2.30
2023-02-24T12:44:05.918Z,2.30
2023-02-24T12:46:32.375Z,2.20
2023-02-24T12:48:58.829Z,2.30
2023-02-24T12:51:25.281Z,2.20
2023-02-24T12:53:51.741Z,2.30
2023-02-24T12:56:18.999Z,2.30
2023-02-24T12:58:45.672Z,2.30
2023-02-24T13:01:12.360Z,2.30
2023-02-24T13:03:41.995Z,2.40
2023-02-24T13:06:08.895Z,2.40
2023-02-24T13:08:35.375Z,2.30
2023-02-24T13:11:01.873Z,2.30
2023-02-24T13:13:28.479Z,2.30
2023-02-24T13:15:54.979Z,2.20
2023-02-24T13:18:21.479Z,2.20
2023-02-24T13:20:47.969Z,2.20
2023-02-24T13:23:14.544Z,2.20
2023-02-24T13:25:41.183Z,2.20
2023-02-24T13:28:07.714Z,2.10
2023-02-24T13:30:34.263Z,2.20
2023-02-24T13:33:00.802Z,2.10
2023-02-24T13:35:27.329Z,2.20
2023-02-24T13:37:53.795Z,2.20
2023-02-24T13:40:23.521Z,2.20
2023-02-24T13:42:49.999Z,2.20
2023-02-24T13:45:16.517Z,2.20
2023-02-24T13:47:43.021Z,2.10
2023-02-24T13:50:09.842Z,2.10
2023-02-24T13:52:36.499Z,2.10
2023-02-24T13:55:02.960Z,2.10
2023-02-24T13:57:29.436Z,2.10
2023-02-24T13:59:57.633Z,2.20
2023-02-24T14:02:24.279Z,2.20
2023-02-24T14:04:50.789Z,2.20
2023-02-24T14:07:17.257Z,2.20
2023-02-24T14:09:43.722Z,2.20
2023-02-24T14:12:10.228Z,2.30
2023-02-24T14:14:36.691Z,2.20
2023-02-24T14:17:03.222Z,2.20
2023-02-24T14:19:29.679Z,2.20
2023-02-24T14:21:56.317Z,2.10
2023-02-24T14:24:22.961Z,2.20
2023-02-24T14:26:49.703Z,2.20
2023-02-24T14:29:16.414Z,2.20
2023-02-24T14:31:43.579Z,2.20
2023-02-24T14:34:10.106Z,2.10
2023-02-24T14:36:36.688Z,2.10
2023-02-24T14:39:03.339Z,2.10
2023-02-24T14:41:29.857Z,2.10
2023-02-24T14:43:56.586Z,2.00
2023-02-24T14:46:23.733Z,2.10
2023-02-24T14:48:50.448Z,2.00
2023-02-24T14:51:16.930Z,2.00
2023-02-24T14:53:43.433Z,2.00
2023-02-24T14:56:12.202Z,2.00
2023-02-24T14:58:38.704Z,2.10
2023-02-24T15:01:05.805Z,2.10
2023-02-24T15:03:32.291Z,2.10
2023-02-24T15:05:58.785Z,2.10
2023-02-24T15:08:25.244Z,2.10
2023-02-24T15:10:51.712Z,2.10
2023-02-24T15:13:18.199Z,2.10
2023-02-24T15:15:44.787Z,2.10
2023-02-24T15:18:11.474Z,2.10
2023-02-24T15:20:38.184Z,2.10
2023-02-24T15:23:04.656Z,2.10
2023-02-24T15:25:42.261Z,2.20
2023-02-24T15:28:09.244Z,2.20
2023-02-24T15:30:35.961Z,2.10
2023-02-24T15:33:02.815Z,2.20
2023-02-24T15:35:29.334Z,2.20
2023-02-24T15:37:55.995Z,2.20
2023-02-24T15:40:22.639Z,2.30
2023-02-24T15:42:49.081Z,2.30
2023-02-24T15:45:15.577Z,2.30
2023-02-24T15:47:42.133Z,2.30
2023-02-24T15:50:08.672Z,2.40
2023-02-24T15:52:35.134Z,2.40
2023-02-24T15:55:02.449Z,2.40
2023-02-24T15:57:28.929Z,2.40
2023-02-24T15:59:55.443Z,2.40
2023-02-24T16:02:21.918Z,2.40
2023-02-24T16:04:48.803Z,2.50
2023-02-24T16:07:15.253Z,2.50
2023-02-24T16:09:41.706Z,2.50
2023-02-24T16:12:08.192Z,2.50
2023-02-24T16:14:34.706Z,2.50
2023-02-24T16:17:01.167Z,2.60
2023-02-24T16:19:27.631Z,2.60
2023-02-24T16:21:54.065Z,2.60
2023-02-24T16:24:21.660Z,2.70
2023-02-24T16:26:48.336Z,2.70
2023-02-24T16:29:14.774Z,2.70
2023-02-24T16:31:41.595Z,2.70
2023-02-24T16:34:08.311Z,2.70
2023-02-24T16:36:34.772Z,2.70
2023-02-24T16:39:01.309Z,2.80
2023-02-24T16:41:27.832Z,2.80
2023-02-24T16:43:54.303Z,2.80
2023-02-24T16:46:22.249Z,2.90
2023-02-24T16:48:48.939Z,2.90
2023-02-24T16:51:15.543Z,2.90
2023-02-24T16:53:42.025Z,2.90
2023-02-24T16:56:08.531Z,2.90
2023-02-24T16:58:35.022Z,2.90
2023-02-24T17:01:02.695Z,2.90
2023-02-24T17:03:29.481Z,2.90
2023-02-24T17:05:55.935Z,2.80
2023-02-24T17:08:22.910Z,2.70
2023-02-24T17:10:49.377Z,2.70
2023-02-24T17:13:15.852Z,2.60
2023-02-24T17:15:42.321Z,2.60
2023-02-24T17:18:08.903Z,2.50
2023-02-24T17:20:35.366Z,2.50
2023-02-24T17:23:01.913Z,2.50
2023-02-24T17:25:28.375Z,2.60
2023-02-24T17:27:54.889Z,2.60
2023-02-24T17:30:21.425Z,2.70
2023-02-24T17:32:47.937Z,2.70
2023-02-24T17:35:14.461Z,2.80
2023-02-24T17:37:40.904Z,2.80
2023-02-24T17:40:07.392Z,2.90
2023-02-24T17:42:33.863Z,3.00
2023-02-24T17:45:00.394Z,3.00
2023-02-24T17:47:26.952Z,3.00
2023-02-24T17:49:53.458Z,3.10
2023-02-24T17:52:20.133Z,3.10
2023-02-24T17:54:46.589Z,3.10
2023-02-24T17:57:13.075Z,3.20
2023-02-24T17:59:39.610Z,3.20
2023-02-24T18:02:06.234Z,3.20
2023-02-24T18:04:32.736Z,3.20
2023-02-24T18:06:59.194Z,3.30
2023-02-24T18:09:25.708Z,3.30
2023-02-24T18:11:52.164Z,3.30
2023-02-24T18:14:18.700Z,3.30
2023-02-24T18:16:45.252Z,3.30
2023-02-24T18:19:11.728Z,3.30
2023-02-24T18:21:38.194Z,3.30
2023-02-24T18:24:04.729Z,3.30
2023-02-24T18:26:31.363Z,3.30
2023-02-24T18:28:58.709Z,3.30
2023-02-24T18:31:25.374Z,3.40
2023-02-24T18:33:51.917Z,3.40
2023-02-24T18:36:18.417Z,3.40
2023-02-24T18:38:44.888Z,3.40
2023-02-24T18:41:11.352Z,3.50
2023-02-24T18:43:37.833Z,3.60
2023-02-24T18:46:04.316Z,3.60
2023-02-24T18:48:30.827Z,3.60
2023-02-24T18:50:57.366Z,3.60
2023-02-24T18:53:23.848Z,3.60
2023-02-24T18:55:50.308Z,3.60
2023-02-24T18:58:16.777Z,3.70
2023-02-24T19:00:47.175Z,3.70
2023-02-24T19:03:13.695Z,3.70
2023-02-24T19:05:40.208Z,3.70
2023-02-24T19:08:06.666Z,3.70
2023-02-24T19:10:33.199Z,3.70
2023-02-24T19:12:59.636Z,3.70
2023-02-24T19:15:27.564Z,3.70
2023-02-24T19:17:54.043Z,3.70
2023-02-24T19:20:20.993Z,3.50
2023-02-24T19:22:49.221Z,3.40
2023-02-24T19:25:16.938Z,3.40
2023-02-24T19:27:43.460Z,3.30
2023-02-24T19:30:10.019Z,3.20
2023-02-24T19:32:36.545Z,3.20
2023-02-24T19:35:03.146Z,3.10
2023-02-24T19:37:29.632Z,3.10
2023-02-24T19:39:56.164Z,3.10
2023-02-24T19:42:22.653Z,3.20
2023-02-24T19:44:49.142Z,3.10
2023-02-24T19:47:15.571Z,3.10
2023-02-24T19:49:42.061Z,3.10
2023-02-24T19:52:08.490Z,3.10
2023-02-24T19:54:35.226Z,3.10
2023-02-24T19:57:01.898Z,3.10
2023-02-24T19:59:28.382Z,3.10
2023-02-24T20:01:54.937Z,3.00
2023-02-24T20:04:21.400Z,3.00
2023-02-24T20:06:48.029Z,2.90
2023-02-24T20:09:15.388Z,2.90
2023-02-24T20:11:41.864Z,2.80
2023-02-24T20:14:08.327Z,2.80
2023-02-24T20:16:36.781Z,2.80
2023-02-24T20:19:03.331Z,2.80
2023-02-24T20:21:29.854Z,2.80
2023-02-24T20:23:56.305Z,2.80
2023-02-24T20:26:23.118Z,2.80
2023-02-24T20:28:49.813Z,2.80
2023-02-24T20:31:16.969Z,2.80
2023-02-24T20:33:43.701Z,2.80
2023-02-24T20:36:25.784Z,2.80
2023-02-24T20:38:52.403Z,2.80
2023-02-24T20:41:19.094Z,2.80
2023-02-24T20:43:45.614Z,2.80
2023-02-24T20:46:12.261Z,2.70
2023-02-24T20:48:38.834Z,2.60
2023-02-24T20:51:05.404Z,2.60
2023-02-24T20:53:32.024Z,2.60
2023-02-24T20:55:58.569Z,2.60
2023-02-24T20:58:25.162Z,2.60
2023-02-24T21:00:51.680Z,2.60
2023-02-24T21:03:18.785Z,2.60
2023-02-24T21:05:45.441Z,2.50
2023-02-24T21:08:12.152Z,2.50
2023-02-24T21:10:38.680Z,2.40
2023-02-24T21:13:08.196Z,2.40
2023-02-24T21:15:34.790Z,2.40
2023-02-24T21:18:01.400Z,2.40
2023-02-24T21:20:27.894Z,2.40
2023-02-24T21:22:54.407Z,2.40
2023-02-24T21:25:20.868Z,2.40
2023-02-24T21:27:48.323Z,2.40
2023-02-24T21:30:14.880Z,2.40
2023-02-24T21:32:41.485Z,2.40
2023-02-24T21:35:08.222Z,2.40
2023-02-24T21:37:35.174Z,2.40
2023-02-24T21:40:01.749Z,2.40
2023-02-24T21:42:28.327Z,2.50
2023-02-24T21:45:02.089Z,2.50
2023-02-24T21:47:28.641Z,2.50
2023-02-24T21:49:55.227Z,2.40
2023-02-24T21:52:21.779Z,2.50
2023-02-24T21:54:49.596Z,2.50
2023-02-24T21:57:17.070Z,2.50
2023-02-24T21:59:43.731Z,2.50
2023-02-24T22:02:10.234Z,2.50
2023-02-24T22:04:36.724Z,2.50
2023-02-24T22:07:03.581Z,2.50
2023-02-24T22:09:30.737Z,2.50
2023-02-24T22:11:57.238Z,2.50
2023-02-24T22:14:23.785Z,2.50
2023-02-24T22:16:50.287Z,2.50
2023-02-24T22:19:18.972Z,2.40
2023-02-24T22:21:45.502Z,2.40
2023-02-24T22:24:12.027Z,2.40
2023-02-24T22:26:38.581Z,2.40
2023-02-24T22:29:05.088Z,2.40
2023-02-24T22:31:31.682Z,2.40
2023-02-24T22:33:58.659Z,2.40
2023-02-24T22:36:25.351Z,2.40
2023-02-24T22:38:51.894Z,2.40
2023-02-24T22:41:18.370Z,2.40
2023-02-24T22:43:45.095Z,2.40
2023-02-24T22:46:11.621Z,2.30
2023-02-24T22:48:38.353Z,2.40
2023-02-24T22:51:04.864Z,2.40
2023-02-24T22:53:31.430Z,2.30
2023-02-24T22:55:58.010Z,2.30
2023-02-24T22:58:33.704Z,2.30
2023-02-24T23:01:00.339Z,2.30
2023-02-24T23:03:26.910Z,2.30
2023-02-24T23:05:53.461Z,2.30
2023-02-24T23:08:20.632Z,2.30
2023-02-24T23:10:47.120Z,2.40
2023-02-24T23:13:13.616Z,2.40
2023-02-24T23:15:40.174Z,2.40
2023-02-24T23:18:06.657Z,2.30
2023-02-24T23:20:33.244Z,2.30
2023-02-24T23:22:59.725Z,2.30
2023-02-24T23:25:26.225Z,2.30
2023-02-24T23:27:54.726Z,2.30
2023-02-24T23:30:21.252Z,2.30
2023-02-24T23:32:47.894Z,2.30
2023-02-24T23:35:15.254Z,2.40
2023-02-24T23:37:41.757Z,2.40
2023-02-24T23:40:09.922Z,2.30
2023-02-24T23:42:36.423Z,2.30
2023-02-24T23:45:03.887Z,2.30
2023-02-24T23:47:30.460Z,2.40
2023-02-24T23:49:57.007Z,2.30
2023-02-24T23:52:23.961Z,2.30
2023-02-24T23:54:50.570Z,2.30
2023-02-24T23:57:17.526Z,2.30
2023-02-24T23:59:44.056Z,2.30
